Latest Weather Observations for New May Downs

IDQ60801

Issued at 10:35 pm EST Tuesday 29 July 2014 (issued every 30 minutes, with the page automatically refreshed every 10 minutes)

About weather observations | Map of weather stations | Latest weather observations for QLD | Other Formats
Station Details ID: 037059 Name: NEW MAY DOWNS Lat: -20.59 Lon: 139.34 Height: 392.0 m
Data from the previous 72 hours. | See also: Recent months for locations in Queensland
Date/Time
EST
Temp
°C
App
Temp
°C
Dew
Point
Rel
Hum
%
Delta-T
°C
Wind Press
QNH
hPa
Press
MSL
hPa
Rain
since 9 am
mm
Dir
 
Spd
km/h
Gust
km/h
Spd
kts
Gust
kts
29/10:30pm 20.6 16.8 -0.7 24 9.5 WSW 9 13 5 7 - - 0.0
29/10:00pm 21.3 17.5 -0.6 23 9.9 WSW 9 13 5 7 - - 0.0
29/09:30pm 22.2 18.4 -0.5 22 10.3 WSW 9 13 5 7 - - 0.0
29/09:00pm 23.0 19.0 0.8 23 10.4 WSW 11 17 6 9 - - 0.0
29/08:30pm 22.0 18.8 3.2 29 9.2 WSW 9 13 5 7 - - 0.0
29/08:00pm 22.5 19.8 2.6 27 9.6 S 6 7 3 4 - - 0.0
29/07:30pm 23.9 21.2 2.7 25 10.4 ESE 6 7 3 4 - - 0.0
29/07:00pm 24.4 21.7 2.5 24 10.7 SE 6 7 3 4 - - 0.0
29/06:30pm 25.6 23.2 2.3 22 11.5 ESE 4 7 2 4 - - 0.0
29/06:00pm 27.3 24.9 2.4 20 12.4 NE 4 6 2 3 - - 0.0
29/05:30pm 27.9 25.1 2.2 19 12.8 E 6 7 3 4 - - 0.0
29/05:00pm 28.7 26.3 2.1 18 13.3 NNW 4 9 2 5 - - 0.0
29/04:30pm 28.8 26.8 2.1 18 13.4 SE 2 6 1 3 - - 0.0
29/04:00pm 28.3 25.6 2.5 19 13.0 S 6 13 3 7 - - 0.0
29/03:30pm 28.5 25.2 2.7 19 13.0 ESE 9 15 5 8 - - 0.0
29/03:00pm 28.8 26.5 2.9 19 13.1 WNW 4 9 2 5 - - 0.0
29/02:30pm 28.5 26.2 2.7 19 13.0 NNE 4 11 2 6 - - 0.0
29/02:00pm 27.4 24.5 2.5 20 12.4 W 7 11 4 6 - - 0.0
29/01:30pm 27.7 24.9 3.4 21 12.4 E 7 15 4 8 - - 0.0
29/01:00pm 26.6 24.0 3.2 22 11.8 WNW 6 9 3 5 - - 0.0
29/12:30pm 27.5 24.7 3.2 21 12.3 N 7 11 4 6 - - 0.0
29/12:00pm 26.8 24.0 3.3 22 11.9 NE 7 15 4 8 - - 0.0
29/11:30am 26.4 23.6 3.0 22 11.7 ENE 7 13 4 7 - - 0.0
29/11:00am 25.5 21.9 2.9 23 11.2 E 11 17 6 9 - - 0.0
29/10:30am 25.1 22.3 3.1 24 10.9 SE 7 11 4 6 - - 0.0
29/10:00am 23.1 20.0 1.5 24 10.3 SE 7 13 4 7 - - 0.0
29/09:30am 21.7 18.8 1.4 26 9.5 SE 6 7 3 4 - - 0.0
29/09:00am 18.6 15.8 -0.2 28 8.3 SE 4 4 2 2 - - 0.0
29/08:30am 16.2 13.4 -0.5 32 7.2 S 4 4 2 2 - - 0.0
29/08:00am 14.0 10.8 -0.8 36 6.2 S 6 7 3 4 - - 0.0
29/07:30am 13.8 10.6 -0.3 38 6.0 S 6 6 3 3 - - 0.0
29/07:00am 13.4 10.2 -0.3 39 5.8 SSW 6 7 3 4 - - 0.0
29/06:30am 13.7 10.6 0.0 39 5.8 S 6 7 3 4 - - 0.0
29/06:00am 13.8 10.7 0.1 39 5.9 SSW 6 9 3 5 - - 0.0
29/05:30am 13.1 10.0 0.2 41 5.5 SSW 6 7 3 4 - - 0.0
29/05:00am 13.0 9.6 -0.3 40 5.6 SSW 7 7 4 4 - - 0.0
29/04:30am 13.4 10.0 -1.7 35 6.2 SSW 6 7 3 4 - - 0.0
29/04:00am 16.0 12.7 -0.2 33 7.0 WSW 7 9 4 5 - - 0.0
29/03:30am 16.8 13.1 0.0 32 7.4 WSW 9 11 5 6 - - 0.0
29/03:00am 17.0 13.3 0.2 32 7.4 WSW 9 11 5 6 - - 0.0
29/02:30am 16.0 12.3 0.2 34 6.9 WSW 9 11 5 6 - - 0.0
29/02:00am 14.7 12.3 -0.6 35 6.5 W 2 7 1 4 - - 0.0
29/01:30am 16.2 13.1 0.3 34 7.0 SSE 6 9 3 5 - - 0.0
29/01:00am 14.6 11.6 -1.5 33 6.7 SSW 4 7 2 4 - - 0.0
29/12:30am 17.4 14.3 0.1 31 7.6 SW 6 7 3 4 - - 0.0
29/12:00am 18.1 15.0 0.3 30 8.0 SW 6 9 3 5 - - 0.0
 
Date/Time
EST
Temp
°C
App
Temp
°C
Dew
Point
Rel
Hum
%
Delta-T
°C
Wind Press
QNH
hPa
Press
MSL
hPa
Rain
since 9 am
mm
Dir
 
Spd
km/h
Gust
km/h
Spd
kts
Gust
kts
28/11:30pm 18.5 14.8 0.2 29 8.2 SW 9 11 5 6 - - 0.0
28/11:00pm 18.5 15.3 0.6 30 8.1 SW 7 9 4 5 - - 0.0
28/10:30pm 18.8 16.1 0.4 29 8.3 S 4 6 2 3 - - 0.0
28/10:00pm 19.3 16.2 0.4 28 8.5 S 6 6 3 3 - - 0.0
28/09:30pm 19.6 16.6 0.6 28 8.6 S 6 7 3 4 - - 0.0
28/09:00pm 20.2 17.2 1.1 28 8.8 S 6 9 3 5 - - 0.0
28/08:30pm 20.6 17.5 1.5 28 8.9 S 7 7 4 4 - - 0.0
28/08:00pm 21.2 18.1 1.5 27 9.2 SSW 7 9 4 5 - - 0.0
28/07:30pm 22.4 19.0 2.0 26 9.7 SSW 9 11 5 6 - - 0.0
28/07:00pm 23.8 20.4 2.0 24 10.5 SSW 9 9 5 5 - - 0.0
28/06:30pm 25.1 22.2 2.5 23 11.1 S 7 11 4 6 - - 0.0
28/06:00pm 26.6 23.7 2.5 21 12.0 S 7 11 4 6 - - 0.0
28/05:30pm 26.8 23.2 2.7 21 12.0 SSE 11 17 6 9 - - 0.0
28/05:00pm 27.8 25.1 2.8 20 12.6 S 6 11 3 6 - - 0.0
28/04:30pm 27.7 24.8 2.7 20 12.6 SSE 7 19 4 10 - - 0.0
28/04:00pm 27.7 24.8 2.7 20 12.6 SSE 7 15 4 8 - - 0.0
28/03:30pm 27.9 25.1 2.9 20 12.6 S 7 13 4 7 - - 0.0
28/03:00pm 27.9 25.5 2.2 19 12.8 SSW 4 6 2 3 - - 0.0
28/02:30pm 27.4 23.8 3.2 21 12.2 SSW 11 19 6 10 - - 0.0
28/02:00pm 27.5 24.8 3.9 22 12.1 ENE 7 15 4 8 - - 0.0
28/01:30pm 26.9 24.1 3.4 22 11.9 NNW 7 15 4 8 - - 0.0
28/01:00pm 26.8 23.4 4.0 23 11.6 E 11 19 6 10 - - 0.0
28/12:30pm 26.7 23.3 3.9 23 11.6 E 11 20 6 11 - - 0.0
28/12:00pm 26.2 22.7 3.5 23 11.4 E 11 20 6 11 - - 0.0
28/11:30am 26.8 23.4 4.0 23 11.6 E 11 19 6 10 - - 0.0
28/11:00am 25.5 21.2 3.5 24 11.0 ESE 15 26 8 14 - - 0.0
28/10:30am 24.2 20.2 0.5 21 11.2 E 11 20 6 11 - - 0.0
28/10:00am 23.1 18.9 -1.1 20 11.0 SE 11 19 6 10 - - 0.0
28/09:30am 21.6 16.9 -1.6 21 10.3 ESE 13 22 7 12 - - 0.0
28/09:00am 20.1 16.6 -1.7 23 9.5 SE 7 13 4 7 - - 0.0
28/08:30am 18.4 14.9 -1.4 26 8.6 SE 7 11 4 6 - - 0.0
28/08:00am 16.9 13.5 -1.7 28 7.9 SSE 6 7 3 4 - - 0.0
28/07:30am 16.0 12.5 -1.5 30 7.4 SE 7 9 4 5 - - 0.0
28/07:00am 15.8 12.3 -1.3 31 7.2 ESE 7 11 4 6 - - 0.0
28/06:30am 15.8 12.3 -1.3 31 7.2 SE 7 11 4 6 - - 0.0
28/06:00am 15.7 12.2 -1.4 31 7.2 E 7 9 4 5 - - 0.0
28/05:30am 15.9 12.5 -0.8 32 7.1 ESE 7 11 4 6 - - 0.0
28/05:00am 15.5 12.2 -1.1 32 7.0 SSE 6 7 3 4 - - 0.0
28/04:30am 15.3 12.0 -0.9 33 6.9 ESE 6 9 3 5 - - 0.0
28/04:00am 15.7 12.4 -1.4 31 7.2 SE 6 7 3 4 - - 0.0
28/03:30am 16.2 12.9 -1.4 30 7.5 SE 6 7 3 4 - - 0.0
28/03:00am 16.5 13.0 -1.1 30 7.5 SSE 7 11 4 6 - - 0.0
28/02:30am 16.6 12.8 -1.0 30 7.6 SSE 9 11 5 6 - - 0.0
28/02:00am 16.5 13.1 -0.7 31 7.4 SSE 7 9 4 5 - - 0.0
28/01:30am 16.4 13.2 -0.3 32 7.3 SSE 6 9 3 5 - - 0.0
28/01:00am 15.5 12.7 -0.7 33 6.9 S 4 6 2 3 - - 0.0
28/12:30am 15.8 12.6 -0.8 32 7.1 SSW 6 7 3 4 - - 0.0
28/12:00am 16.7 13.5 -0.5 31 7.5 SW 6 7 3 4 - - 0.0
 
Date/Time
EST
Temp
°C
App
Temp
°C
Dew
Point
Rel
Hum
%
Delta-T
°C
Wind Press
QNH
hPa
Press
MSL
hPa
Rain
since 9 am
mm
Dir
 
Spd
km/h
Gust
km/h
Spd
kts
Gust
kts
27/11:30pm 16.7 13.3 -0.5 31 7.5 SW 7 9 4 5 - - 0.0
27/11:00pm 17.4 13.7 -0.3 30 7.8 SSW 9 11 5 6 - - 0.0
27/10:30pm 17.7 14.3 -0.5 29 8.0 SW 7 11 4 6 - - 0.0
27/10:00pm 18.8 15.5 -0.1 28 8.4 S 7 7 4 4 - - 0.0
27/09:30pm 19.2 15.9 -0.2 27 8.7 S 7 9 4 5 - - 0.0
27/09:00pm 19.4 16.3 -0.1 27 8.7 S 6 7 3 4 - - 0.0
27/08:30pm 19.9 16.6 0.4 27 8.9 SSW 7 11 4 6 - - 0.0
27/08:00pm 20.8 18.1 0.6 26 9.3 S 4 7 2 4 - - 0.0
27/07:30pm 22.5 19.3 0.9 24 10.1 S 7 9 4 5 - - 0.0
27/07:00pm 23.5 20.3 0.6 22 10.7 S 7 9 4 5 - - 0.0
27/06:30pm 24.5 20.9 0.8 21 11.2 S 9 13 5 7 - - 0.0
27/06:00pm 25.6 22.1 1.0 20 11.8 SSE 9 15 5 8 - - 0.0
27/05:30pm 26.4 22.4 0.2 18 12.5 SSE 11 19 6 10 - - 0.0
27/05:00pm 26.9 23.7 0.6 18 12.7 S 7 17 4 9 - - 0.0
27/04:30pm 27.1 23.5 0.8 18 12.7 S 9 17 5 9 - - 0.0
27/04:00pm 27.4 23.2 1.8 19 12.6 S 13 24 7 13 - - 0.0
27/03:30pm 27.0 22.8 1.4 19 12.5 SSE 13 20 7 11 - - 0.0
27/03:00pm 27.2 23.8 1.6 19 12.6 SSE 9 19 5 10 - - 0.0
27/02:30pm 27.5 24.1 1.8 19 12.7 E 9 19 5 10 - - 0.0
27/02:00pm 27.0 22.6 2.8 21 12.1 SE 15 22 8 12 - - 0.0
27/01:30pm 26.5 21.9 3.7 23 11.6 ESE 17 26 9 14 - - 0.0
27/01:00pm 26.3 21.4 4.1 24 11.3 E 19 26 10 14 - - 0.0
27/12:30pm 25.9 21.1 2.6 22 11.5 ESE 17 32 9 17 - - 0.0
27/12:00pm 25.2 20.0 2.6 23 11.1 ESE 19 28 10 15 - - 0.0
27/11:30am 25.4 19.5 1.5 21 11.6 ESE 22 32 12 17 - - 0.0
27/11:00am 24.0 18.0 1.0 22 10.9 ESE 22 33 12 18 - - 0.0
27/10:30am 23.4 17.9 0.5 22 10.7 ESE 19 28 10 15 - - 0.0
27/10:00am 22.0 16.9 0.5 24 10.0 ESE 17 24 9 13 - - 0.0
27/09:30am 21.0 15.8 0.2 25 9.5 ESE 17 24 9 13 - - 0.0
27/09:00am 20.0 15.6 0.5 27 8.9 SE 13 22 7 12 - - -
27/08:30am 18.0 14.3 0.2 30 7.9 SSE 9 13 5 7 - - -
27/08:00am 16.5 13.7 -0.2 32 7.3 SSW 4 7 2 4 - - -
27/07:30am 15.6 12.8 -0.2 34 6.8 S 4 7 2 4 - - -
27/07:00am 16.1 12.9 -0.2 33 7.1 S 6 11 3 6 - - -
27/06:30am 16.7 13.0 -0.1 32 7.4 SSE 9 13 5 7 - - -
27/06:00am 17.0 13.3 0.2 32 7.4 SSE 9 15 5 8 - - -
27/05:30am 16.8 13.1 0.0 32 7.4 SSE 9 13 5 7 - - -
27/05:00am 16.8 13.1 0.0 32 7.4 SE 9 13 5 7 - - -
27/04:30am 16.4 12.7 0.1 33 7.1 SE 9 13 5 7 - - -
27/04:00am 16.7 12.6 -0.1 32 7.4 SE 11 17 6 9 - - -
27/03:30am 16.8 12.7 0.0 32 7.4 SSE 11 15 6 8 - - -
27/03:00am 16.9 13.6 0.1 32 7.4 S 7 11 4 6 - - -
27/02:30am 17.4 13.7 0.1 31 7.6 S 9 13 5 7 - - -
27/02:00am 18.0 14.0 0.6 31 7.8 SSE 11 17 6 9 - - -
27/01:30am 18.3 14.3 0.4 30 8.0 SSE 11 17 6 9 - - -
27/12:30am 18.4 15.1 0.1 29 8.2 SE 7 13 4 7 - - 0.0
27/12:00am 19.2 14.8 0.3 28 8.5 SSE 13 20 7 11 - - 0.0
 
Date/Time
EST
Temp
°C
App
Temp
°C
Dew
Point
Rel
Hum
%
Delta-T
°C
Wind Press
QNH
hPa
Press
MSL
hPa
Rain
since 9 am
mm
Dir
 
Spd
km/h
Gust
km/h
Spd
kts
Gust
kts
26/11:30pm 19.6 15.2 0.6 28 8.6 SE 13 19 7 10 - - 0.0
26/11:00pm 19.2 15.6 0.3 28 8.5 SE 9 13 5 7 - - 0.0

Other Formats:

Comma delimited format used in spreadsheet applications
http://www.bom.gov.au/fwo/IDQ60801/IDQ60801.94349.axf

JavaScript Object Notation format (JSON) in row-major order
http://www.bom.gov.au/fwo/IDQ60801/IDQ60801.94349.json